createdAt,value
2019-03-24T00:00:53.893Z,99931.30
2019-03-24T00:04:07.931Z,99939.97
2019-03-24T00:07:21.959Z,99934.20
2019-03-24T00:10:36.236Z,99937.31
2019-03-24T00:13:50.569Z,99937.81
2019-03-24T00:17:05.075Z,99929.50
2019-03-24T00:20:19.339Z,99933.80
2019-03-24T00:23:33.636Z,99930.69
2019-03-24T00:26:47.904Z,99923.73
2019-03-24T00:30:02.130Z,99923.48
2019-03-24T00:33:16.296Z,99931.09
2019-03-24T00:36:30.756Z,99920.79
2019-03-24T00:39:44.746Z,99921.65
2019-03-24T00:42:58.924Z,99920.42
2019-03-24T00:46:13.156Z,99913.77
2019-03-24T00:49:27.423Z,99917.69
2019-03-24T00:52:41.444Z,99913.34
2019-03-24T00:55:55.559Z,99907.55
2019-03-24T00:59:09.716Z,99903.12
2019-03-24T01:02:23.856Z,99900.81
2019-03-24T01:05:37.982Z,99896.55
2019-03-24T01:08:52.132Z,99897.91
2019-03-24T01:12:06.380Z,99901.18
2019-03-24T01:15:20.548Z,99888.67
2019-03-24T01:18:34.585Z,99886.03
2019-03-24T01:21:48.602Z,99883.08
2019-03-24T01:25:03.061Z,99878.06
2019-03-24T01:28:17.368Z,99874.70
2019-03-24T01:31:31.523Z,99879.97
2019-03-24T01:34:45.839Z,99878.64
2019-03-24T01:38:00.308Z,99870.64
2019-03-24T01:41:14.735Z,99869.47
2019-03-24T01:44:28.848Z,99862.97
2019-03-24T01:47:42.997Z,99861.29
2019-03-24T01:50:57.022Z,99859.28
2019-03-24T01:54:11.261Z,99867.31
2019-03-24T01:57:25.371Z,99863.30
2019-03-24T02:00:39.694Z,99857.70
2019-03-24T02:03:53.733Z,99860.61
2019-03-24T02:07:07.759Z,99851.36
2019-03-24T02:10:21.894Z,99849.89
2019-03-24T02:13:35.929Z,99843.93
2019-03-24T02:16:50.456Z,99838.18
2019-03-24T02:20:06.128Z,99837.03
2019-03-24T02:23:20.284Z,99837.18
2019-03-24T02:26:34.309Z,99832.64
2019-03-24T02:29:48.601Z,99835.65
2019-03-24T02:33:03.094Z,99823.67
2019-03-24T02:36:17.126Z,99826.67
2019-03-24T02:39:31.126Z,99831.16
2019-03-24T02:42:45.181Z,99831.26
2019-03-24T02:45:59.483Z,99831.11
2019-03-24T02:49:13.500Z,99832.23
2019-03-24T02:52:27.553Z,99832.08
2019-03-24T02:55:41.589Z,99832.96
2019-03-24T02:58:55.902Z,99828.16
2019-03-24T03:02:10.115Z,99824.73
2019-03-24T03:05:24.263Z,99819.36
2019-03-24T03:08:38.290Z,99820.78
2019-03-24T03:11:52.337Z,99816.70
2019-03-24T03:15:07.342Z,99820.20
2019-03-24T03:18:21.594Z,99815.82
2019-03-24T03:21:35.993Z,99815.22
2019-03-24T03:24:50.027Z,99809.75
2019-03-24T03:28:04.191Z,99813.97
2019-03-24T03:31:18.494Z,99806.52
2019-03-24T03:34:32.509Z,99805.21
2019-03-24T03:37:46.561Z,99806.52
2019-03-24T03:41:01.149Z,99802.95
2019-03-24T03:44:15.276Z,99801.09
2019-03-24T03:47:29.430Z,99798.55
2019-03-24T03:50:43.464Z,99788.91
2019-03-24T03:53:59.145Z,99788.69
2019-03-24T03:57:13.632Z,99792.70
2019-03-24T04:00:32.012Z,99790.11
2019-03-24T04:03:46.327Z,99788.64
2019-03-24T04:07:00.356Z,99789.80
2019-03-24T04:10:14.375Z,99791.22
2019-03-24T04:13:28.713Z,99793.75
2019-03-24T04:16:42.696Z,99788.43
2019-03-24T04:19:56.927Z,99788.63
2019-03-24T04:23:11.037Z,99785.84
2019-03-24T04:26:25.045Z,99787.87
2019-03-24T04:29:39.276Z,99786.88
2019-03-24T04:32:53.400Z,99788.66
2019-03-24T04:36:07.543Z,99776.00
2019-03-24T04:39:21.570Z,99778.27
2019-03-24T04:42:35.783Z,99787.76
2019-03-24T04:45:50.004Z,99787.63
2019-03-24T04:49:04.129Z,99785.84
2019-03-24T04:52:18.254Z,99781.03
2019-03-24T04:55:32.270Z,99790.58
2019-03-24T04:58:46.581Z,99783.67
2019-03-24T05:02:00.693Z,99784.19
2019-03-24T05:05:14.717Z,99787.45
2019-03-24T05:08:29.462Z,99789.25
2019-03-24T05:11:43.555Z,99778.44
2019-03-24T05:14:58.347Z,99782.32
2019-03-24T05:18:12.462Z,99782.63
2019-03-24T05:21:26.833Z,99782.94
2019-03-24T05:24:40.833Z,99784.43
2019-03-24T05:27:54.900Z,99788.87
2019-03-24T05:31:09.196Z,99782.42
2019-03-24T05:34:23.207Z,99787.97
2019-03-24T05:37:37.218Z,99793.04
2019-03-24T05:40:51.522Z,99793.99
2019-03-24T05:44:05.766Z,99799.05
2019-03-24T05:47:19.886Z,99794.45
2019-03-24T05:50:34.238Z,99798.91
2019-03-24T05:53:48.258Z,99799.59
2019-03-24T05:57:02.627Z,99801.73
2019-03-24T06:00:16.864Z,99804.48
2019-03-24T06:03:31.251Z,99807.67
2019-03-24T06:06:45.263Z,99802.55
2019-03-24T06:09:59.558Z,99806.56
2019-03-24T06:13:13.619Z,99810.03
2019-03-24T06:16:27.952Z,99806.52
2019-03-24T06:19:41.990Z,99805.56
2019-03-24T06:22:56.120Z,99821.06
2019-03-24T06:26:10.350Z,99817.61
2019-03-24T06:29:24.346Z,99816.13
2019-03-24T06:32:38.600Z,99817.89
2019-03-24T06:35:52.804Z,99825.48
2019-03-24T06:39:07.128Z,99811.28
2019-03-24T06:42:21.495Z,99817.08
2019-03-24T06:45:35.565Z,99814.97
2019-03-24T06:48:49.847Z,99822.82
2019-03-24T06:52:04.102Z,99823.59
2019-03-24T06:55:18.222Z,99823.84
2019-03-24T06:58:32.371Z,99831.75
2019-03-24T07:01:46.368Z,99824.05
2019-03-24T07:05:00.493Z,99811.45
2019-03-24T07:08:14.846Z,99809.30
2019-03-24T07:11:29.066Z,99807.94
2019-03-24T07:14:43.185Z,99808.13
2019-03-24T07:17:57.201Z,99809.23
2019-03-24T07:21:11.223Z,99803.23
2019-03-24T07:24:25.242Z,99798.34
2019-03-24T07:27:39.267Z,99800.48
2019-03-24T07:30:53.285Z,99795.92
2019-03-24T07:34:07.335Z,99792.79
2019-03-24T07:37:21.738Z,99791.28
2019-03-24T07:40:35.760Z,99792.86
2019-03-24T07:43:49.767Z,99788.03
2019-03-24T07:47:10.866Z,99790.07
2019-03-24T07:50:25.175Z,99783.61
2019-03-24T07:53:39.213Z,99783.61
2019-03-24T07:56:53.358Z,99780.41
2019-03-24T08:00:10.287Z,99770.91
2019-03-24T08:03:24.622Z,99766.64
2019-03-24T08:06:38.629Z,99763.77
2019-03-24T08:09:52.939Z,99753.54
2019-03-24T08:13:06.951Z,99753.81
2019-03-24T08:16:20.979Z,99750.98
2019-03-24T08:19:35.281Z,99745.58
2019-03-24T08:22:49.339Z,99743.35
2019-03-24T08:26:03.476Z,99735.66
2019-03-24T08:29:17.838Z,99736.91
2019-03-24T08:32:31.931Z,99733.66
2019-03-24T08:35:46.226Z,99739.23
2019-03-24T08:39:00.469Z,99734.34
2019-03-24T08:42:15.042Z,99726.58
2019-03-24T08:45:29.651Z,99718.34
2019-03-24T08:48:43.835Z,99707.78
2019-03-24T08:51:57.928Z,99705.17
2019-03-24T08:55:11.976Z,99698.66
2019-03-24T08:58:26.052Z,99699.33
2019-03-24T09:01:40.419Z,99693.56
2019-03-24T09:04:54.741Z,99692.06
2019-03-24T09:08:08.844Z,99687.17
2019-03-24T09:11:30.817Z,99674.66
2019-03-24T09:14:39.243Z,99683.43
2019-03-24T09:17:53.659Z,99682.03
2019-03-24T09:21:07.674Z,99679.52
2019-03-24T09:24:21.670Z,99671.33
2019-03-24T09:27:35.942Z,99666.17
2019-03-24T09:30:49.966Z,99664.02
2019-03-24T09:34:04.114Z,99662.77
2019-03-24T09:37:18.136Z,99662.02
2019-03-24T09:40:34.397Z,99658.96
2019-03-24T09:43:48.394Z,99665.00
2019-03-24T09:47:02.542Z,99652.84
2019-03-24T09:50:16.656Z,99655.52
2019-03-24T09:53:30.670Z,99656.79
2019-03-24T09:56:44.948Z,99660.14
2019-03-24T09:59:58.975Z,99656.81
2019-03-24T10:03:13.282Z,99661.73
2019-03-24T10:06:27.610Z,99649.82
2019-03-24T10:09:41.739Z,99640.48
2019-03-24T10:12:55.749Z,99644.70
2019-03-24T10:16:09.790Z,99638.41
2019-03-24T10:19:23.812Z,99635.58
2019-03-24T10:22:37.956Z,99632.63
2019-03-24T10:25:52.218Z,99622.78
2019-03-24T10:29:06.946Z,99621.00
2019-03-24T10:32:20.961Z,99621.22
2019-03-24T10:35:35.385Z,99614.81
2019-03-24T10:38:49.409Z,99607.41
2019-03-24T10:42:03.630Z,99605.33
2019-03-24T10:45:17.847Z,99606.42
2019-03-24T10:48:33.870Z,99599.06
2019-03-24T10:51:48.008Z,99600.27
2019-03-24T10:55:02.649Z,99605.08
2019-03-24T10:58:16.776Z,99600.80
2019-03-24T11:01:30.898Z,99597.28
2019-03-24T11:04:45.302Z,99597.32
2019-03-24T11:07:59.430Z,99592.98
2019-03-24T11:11:13.621Z,99588.55
2019-03-24T11:14:27.608Z,99603.53
2019-03-24T11:17:41.718Z,99596.98
2019-03-24T11:20:56.131Z,99593.97
2019-03-24T11:24:10.370Z,99582.54
2019-03-24T11:27:24.382Z,99575.17
2019-03-24T11:30:38.406Z,99592.70
2019-03-24T11:33:52.727Z,99580.23
2019-03-24T11:37:06.843Z,99588.91
2019-03-24T11:40:20.962Z,99587.22
2019-03-24T11:43:35.086Z,99579.26
2019-03-24T11:46:49.140Z,99583.63
2019-03-24T11:50:04.187Z,99576.38
2019-03-24T11:53:18.204Z,99570.38
2019-03-24T11:56:32.250Z,99567.19
2019-03-24T11:59:46.387Z,99564.81
2019-03-24T12:03:00.810Z,99564.99
2019-03-24T12:06:15.172Z,99578.41
2019-03-24T12:09:29.701Z,99570.14
2019-03-24T12:12:44.029Z,99571.82
2019-03-24T12:15:58.271Z,99566.55
2019-03-24T12:19:12.285Z,99570.33
2019-03-24T12:22:26.627Z,99560.78
2019-03-24T12:25:40.863Z,99558.48
2019-03-24T12:28:54.890Z,99559.59
2019-03-24T12:32:08.922Z,99556.49
2019-03-24T12:35:23.258Z,99549.39
2019-03-24T12:38:37.279Z,99543.92
2019-03-24T12:41:51.658Z,99547.03
2019-03-24T12:45:07.577Z,99545.06
2019-03-24T12:48:21.961Z,99541.34
2019-03-24T12:51:36.088Z,99534.38
2019-03-24T12:54:50.516Z,99536.25
2019-03-24T12:58:04.689Z,99541.11
2019-03-24T13:01:18.729Z,99534.34
2019-03-24T13:04:33.051Z,99531.68
2019-03-24T13:07:47.096Z,99535.33
2019-03-24T13:11:01.220Z,99532.05
2019-03-24T13:14:15.567Z,99538.44
2019-03-24T13:17:29.942Z,99531.71
2019-03-24T13:20:44.151Z,99524.23
2019-03-24T13:23:58.479Z,99527.80
2019-03-24T13:27:12.495Z,99522.83
2019-03-24T13:30:26.507Z,99519.41
2019-03-24T13:33:40.532Z,99510.08
2019-03-24T13:36:54.558Z,99509.23
2019-03-24T13:40:09.149Z,99505.70
2019-03-24T13:43:23.180Z,99505.58
2019-03-24T13:46:37.199Z,99494.61
2019-03-24T13:49:51.225Z,99503.66
2019-03-24T13:53:05.467Z,99496.87
2019-03-24T13:56:19.628Z,99489.59
2019-03-24T13:59:33.650Z,99476.29
2019-03-24T14:02:47.891Z,99461.85
2019-03-24T14:06:01.907Z,99469.51
2019-03-24T14:09:16.342Z,99469.55
2019-03-24T14:12:30.827Z,99467.66
2019-03-24T14:15:44.968Z,99464.33
2019-03-24T14:18:59.046Z,99457.86
2019-03-24T14:22:13.069Z,99458.64
2019-03-24T14:25:27.106Z,99458.62
2019-03-24T14:28:41.137Z,99467.05
2019-03-24T14:31:55.154Z,99473.07
2019-03-24T14:35:09.195Z,99469.72
2019-03-24T14:38:23.477Z,99469.05
2019-03-24T14:41:38.174Z,99477.81
2019-03-24T14:44:52.198Z,99474.36
2019-03-24T14:48:06.356Z,99468.41
2019-03-24T14:51:20.371Z,99470.80
2019-03-24T14:54:34.410Z,99472.38
2019-03-24T14:57:48.663Z,99465.31
2019-03-24T15:01:02.860Z,99473.27
2019-03-24T15:04:17.003Z,99480.55
2019-03-24T15:07:31.231Z,99475.09
2019-03-24T15:10:45.373Z,99477.94
2019-03-24T15:13:59.539Z,99480.89
2019-03-24T15:17:13.676Z,99486.62
2019-03-24T15:20:27.864Z,99490.52
2019-03-24T15:23:41.915Z,99492.16
2019-03-24T15:26:56.301Z,99494.16
2019-03-24T15:30:11.446Z,99495.08
2019-03-24T15:33:25.466Z,99494.79
2019-03-24T15:36:39.623Z,99498.19
2019-03-24T15:39:53.647Z,99498.19
2019-03-24T15:43:08.151Z,99504.02
2019-03-24T15:46:22.504Z,99500.40
2019-03-24T15:49:36.684Z,99511.20
2019-03-24T15:52:50.857Z,99512.94
2019-03-24T15:56:05.028Z,99513.19
2019-03-24T15:59:20.003Z,99510.91
2019-03-24T16:02:34.547Z,99512.08
2019-03-24T16:05:49.027Z,99515.68
2019-03-24T16:09:05.938Z,99510.71
2019-03-24T16:12:20.570Z,99516.86
2019-03-24T16:15:34.992Z,99513.29
2019-03-24T16:18:49.687Z,99508.64
2019-03-24T16:22:03.912Z,99507.81
2019-03-24T16:25:18.103Z,99517.25
2019-03-24T16:28:32.213Z,99518.05
2019-03-24T16:31:46.260Z,99525.38
2019-03-24T16:35:00.413Z,99523.31
2019-03-24T16:38:15.116Z,99525.80
2019-03-24T16:41:29.315Z,99530.31
2019-03-24T16:44:43.324Z,99530.05
2019-03-24T16:47:57.601Z,99521.94
2019-03-24T16:51:11.769Z,99521.69
2019-03-24T16:54:25.878Z,99520.28
2019-03-24T16:57:40.006Z,99519.53
2019-03-24T17:00:54.322Z,99520.28
2019-03-24T17:04:08.613Z,99508.21
2019-03-24T17:07:22.945Z,99514.09
2019-03-24T17:10:37.313Z,99503.58
2019-03-24T17:13:51.548Z,99503.33
2019-03-24T17:17:05.953Z,99501.00
2019-03-24T17:20:20.185Z,99509.22
2019-03-24T17:23:34.195Z,99513.09
2019-03-24T17:26:48.224Z,99515.39
2019-03-24T17:30:03.085Z,99510.25
2019-03-24T17:33:17.357Z,99504.61
2019-03-24T17:36:31.377Z,99504.08
2019-03-24T17:39:45.404Z,99508.33
2019-03-24T17:42:59.446Z,99514.73
2019-03-24T17:46:13.661Z,99513.05
2019-03-24T17:49:27.838Z,99518.13
2019-03-24T17:52:42.277Z,99521.41
2019-03-24T17:55:56.305Z,99521.34
2019-03-24T17:59:10.357Z,99531.39
2019-03-24T18:02:24.635Z,99530.13
2019-03-24T18:05:39.058Z,99526.88
2019-03-24T18:08:53.391Z,99523.39
2019-03-24T18:12:07.732Z,99527.64
2019-03-24T18:15:22.149Z,99533.44
2019-03-24T18:18:37.273Z,99528.74
2019-03-24T18:21:51.722Z,99520.13
2019-03-24T18:25:07.601Z,99536.83
2019-03-24T18:28:22.006Z,99540.55
2019-03-24T18:31:36.145Z,99548.59
2019-03-24T18:34:50.171Z,99544.32
2019-03-24T18:38:04.562Z,99546.31
2019-03-24T18:41:18.687Z,99545.48
2019-03-24T18:44:33.004Z,99550.75
2019-03-24T18:47:47.277Z,99550.13
2019-03-24T18:51:01.965Z,99546.84
2019-03-24T18:54:16.158Z,99549.45
2019-03-24T18:57:30.528Z,99548.61
2019-03-24T19:00:44.658Z,99550.17
2019-03-24T19:03:59.256Z,99549.71
2019-03-24T19:07:13.701Z,99540.98
2019-03-24T19:10:28.062Z,99545.98
2019-03-24T19:13:42.126Z,99550.16
2019-03-24T19:16:56.417Z,99557.31
2019-03-24T19:20:11.241Z,99553.31
2019-03-24T19:23:25.255Z,99546.32
2019-03-24T19:26:39.587Z,99555.47
2019-03-24T19:29:53.904Z,99553.41
2019-03-24T19:33:08.167Z,99552.84
2019-03-24T19:36:22.202Z,99548.51
2019-03-24T19:39:36.431Z,99554.65
2019-03-24T19:42:50.771Z,99555.38
2019-03-24T19:46:04.960Z,99558.33
2019-03-24T19:49:19.318Z,99561.78
2019-03-24T19:52:44.115Z,99564.80
2019-03-24T19:55:49.271Z,99564.01
2019-03-24T19:59:03.627Z,99570.33
2019-03-24T20:02:17.657Z,99573.94
2019-03-24T20:05:32.084Z,99572.59
2019-03-24T20:08:46.416Z,99565.60
2019-03-24T20:12:00.454Z,99572.80
2019-03-24T20:15:14.739Z,99574.27
2019-03-24T20:18:29.119Z,99566.83
2019-03-24T20:21:43.099Z,99570.29
2019-03-24T20:24:57.123Z,99574.03
2019-03-24T20:28:11.147Z,99571.24
2019-03-24T20:31:25.580Z,99580.73
2019-03-24T20:34:39.613Z,99584.22
2019-03-24T20:37:53.622Z,99587.92
2019-03-24T20:41:07.771Z,99589.92
2019-03-24T20:44:22.084Z,99594.69
2019-03-24T20:47:36.317Z,99589.27
2019-03-24T20:50:50.633Z,99587.15
2019-03-24T20:54:04.693Z,99586.40
2019-03-24T20:57:18.749Z,99579.66
2019-03-24T21:00:34.487Z,99582.92
2019-03-24T21:03:48.608Z,99578.40
2019-03-24T21:07:02.750Z,99577.45
2019-03-24T21:10:16.777Z,99567.88
2019-03-24T21:13:31.080Z,99561.61
2019-03-24T21:16:45.357Z,99558.95
2019-03-24T21:19:59.502Z,99561.45
2019-03-24T21:23:13.570Z,99559.66
2019-03-24T21:26:27.599Z,99555.69
2019-03-24T21:29:41.628Z,99552.07
2019-03-24T21:32:55.973Z,99545.38
2019-03-24T21:36:10.009Z,99548.26
2019-03-24T21:39:24.133Z,99553.74
2019-03-24T21:42:38.141Z,99558.81
2019-03-24T21:45:52.196Z,99559.87
2019-03-24T21:49:06.211Z,99555.56
2019-03-24T21:52:20.356Z,99560.30
2019-03-24T21:55:34.490Z,99559.77
2019-03-24T21:58:49.252Z,99560.87
2019-03-24T22:02:04.147Z,99559.05
2019-03-24T22:05:18.434Z,99550.58
2019-03-24T22:08:32.482Z,99558.70
2019-03-24T22:11:46.822Z,99553.48
2019-03-24T22:15:00.989Z,99549.70
2019-03-24T22:18:14.984Z,99548.95
2019-03-24T22:21:29.486Z,99547.32
2019-03-24T22:24:43.921Z,99547.52
2019-03-24T22:27:58.083Z,99547.70
2019-03-24T22:31:12.118Z,99546.27
2019-03-24T22:34:26.155Z,99549.16
2019-03-24T22:37:40.213Z,99549.52
2019-03-24T22:40:54.329Z,99548.61
2019-03-24T22:44:08.646Z,99547.54
2019-03-24T22:47:22.661Z,99539.39
2019-03-24T22:50:36.711Z,99541.19
2019-03-24T22:53:50.732Z,99536.14
2019-03-24T22:57:04.857Z,99540.48
2019-03-24T23:00:25.116Z,99536.68
2019-03-24T23:03:39.116Z,99535.75
2019-03-24T23:06:53.266Z,99526.50
2019-03-24T23:10:07.519Z,99527.61
2019-03-24T23:13:21.523Z,99527.06
2019-03-24T23:16:35.566Z,99522.15
2019-03-24T23:19:49.580Z,99517.27
2019-03-24T23:23:03.730Z,99516.36
2019-03-24T23:26:17.974Z,99518.68
2019-03-24T23:29:31.999Z,99516.51
2019-03-24T23:32:46.131Z,99515.06
2019-03-24T23:36:00.168Z,99511.80
2019-03-24T23:39:14.222Z,99519.04
2019-03-24T23:42:28.576Z,99516.69
2019-03-24T23:45:42.711Z,99504.57
2019-03-24T23:48:56.856Z,99508.34
2019-03-24T23:52:11.098Z,99505.45
2019-03-24T23:55:25.512Z,99506.67
2019-03-24T23:58:41.081Z,99509.20
